Time;durP1;ratioP1;P1;durP2;ratioP2;P2;SDS_P1;SDS_P2;PMS_P1;PMS_P2;Temp;Humidity;BMP_temperature;BMP_pressure;BME280_temperature;BME280_humidity;BME280_pressure;Samples;Min_cycle;Max_cycle;Signal;HPM_P1;HPM_P2
2022/09/05 00:00:23;;;;;;;12.45;10.63;;;;;;;;;;5030213;28;20385;-74
2022/09/05 00:02:54;;;;;;;14.35;11.40;;;;;;;;;;5033587;28;20021;-75
2022/09/05 00:05:41;;;;;;;13.15;10.93;;;;;;;;;;5032458;28;20033;-75
2022/09/05 00:08:22;;;;;;;15.77;10.63;;;;;;;;;;5032250;28;20482;-75
2022/09/05 00:11:37;;;;;;;12.20;10.93;;;;;;;;;;5032848;28;20033;-75
2022/09/05 00:14:14;;;;;;;14.10;10.85;;;;;;;;;;4975736;28;20045;-76
2022/09/05 00:17:03;;;;;;;16.25;11.07;;;;;;;;;;5011549;28;20034;-75
2022/09/05 00:19:37;;;;;;;14.60;11.23;;;;;;;;;;5009886;28;20117;-74
2022/09/05 00:22:37;;;;;;;13.80;11.07;;;;;;;;;;5013811;28;20037;-76
2022/09/05 00:25:30;;;;;;;14.90;10.70;;;;;;;;;;5024753;28;20053;-76
2022/09/05 00:28:12;;;;;;;15.45;10.75;;;;;;;;;;5032879;28;20029;-75
2022/09/05 00:30:58;;;;;;;17.45;12.18;;;;;;;;;;5012509;28;20053;-75
2022/09/05 00:33:33;;;;;;;16.27;12.93;;;;;;;;;;5013901;28;20026;-75
2022/09/05 00:36:12;;;;;;;16.67;11.55;;;;;;;;;;5013238;28;20428;-75
2022/09/05 00:38:50;;;;;;;14.75;11.32;;;;;;;;;;5013495;28;20385;-75
2022/09/05 00:41:17;;;;;;;16.33;11.82;;;;;;;;;;5013193;28;20057;-74
2022/09/05 00:43:46;;;;;;;15.43;12.40;;;;;;;;;;5013218;28;20060;-75
2022/09/05 00:46:26;;;;;;;16.02;12.35;;;;;;;;;;5012403;28;20465;-75
2022/09/05 00:49:10;;;;;;;17.15;13.05;;;;;;;;;;5012430;28;20566;-74
2022/09/05 00:51:59;;;;;;;18.70;13.73;;;;;;;;;;5013188;28;20057;-75
2022/09/05 00:54:50;;;;;;;15.07;11.75;;;;;;;;;;5013041;28;20053;-75
2022/09/05 00:57:34;;;;;;;16.35;12.45;;;;;;;;;;5013012;28;20021;-75
2022/09/05 01:00:21;;;;;;;16.77;13.10;;;;;;;;;;5011615;28;20041;-75
2022/09/05 01:03:19;;;;;;;17.77;12.13;;;;;;;;;;5012939;28;20102;-75
2022/09/05 01:05:53;;;;;;;15.43;12.60;;;;;;;;;;5011859;28;20033;-74
2022/09/05 01:08:37;;;;;;;15.65;12.30;;;;;;;;;;5012162;28;20445;-75
2022/09/05 01:11:38;;;;;;;19.25;13.43;;;;;;;;;;5012388;28;20045;-75
2022/09/05 01:14:18;;;;;;;17.23;13.18;;;;;;;;;;4989792;28;20042;-74
2022/09/05 01:17:21;;;;;;;19.35;12.93;;;;;;;;;;5027852;28;20403;-75
2022/09/05 01:19:53;;;;;;;18.27;12.90;;;;;;;;;;5047574;28;20033;-74
2022/09/05 01:22:32;;;;;;;18.30;12.95;;;;;;;;;;5032238;28;20035;-75
2022/09/05 01:25:14;;;;;;;16.95;13.65;;;;;;;;;;5031477;28;20033;-74
2022/09/05 01:27:58;;;;;;;;;;;;;;;;;;5030567;28;20032;-75
2022/09/05 01:30:31;;;;;;;19.23;14.98;;;;;;;;;;5030790;28;19996;-74
2022/09/05 01:33:26;;;;;;;21.83;15.25;;;;;;;;;;5019509;28;20378;-74
2022/09/05 01:36:10;;;;;;;16.73;13.50;;;;;;;;;;5003180;28;20044;-75
2022/09/05 01:39:03;;;;;;;19.10;13.15;;;;;;;;;;5012084;28;20111;-75
2022/09/05 01:41:52;;;;;;;16.63;12.60;;;;;;;;;;5027596;28;20386;-74
2022/09/05 01:44:42;;;;;;;19.00;13.73;;;;;;;;;;5028853;28;20476;-74
2022/09/05 01:47:35;;;;;;;19.98;13.40;;;;;;;;;;5032219;28;20428;-74
2022/09/05 01:50:24;;;;;;;17.25;14.57;;;;;;;;;;5031624;28;20021;-76
2022/09/05 01:53:08;;;;;;;17.35;13.65;;;;;;;;;;5030168;28;20037;-76
2022/09/05 01:56:08;;;;;;;18.42;15.30;;;;;;;;;;5031405;28;20032;-74
2022/09/05 01:58:43;;;;;;;17.98;14.18;;;;;;;;;;5017731;28;20640;-74
2022/09/05 02:01:30;;;;;;;21.35;14.73;;;;;;;;;;5026894;28;20490;-76
2022/09/05 02:04:11;;;;;;;19.60;15.07;;;;;;;;;;5040450;28;20394;-75
2022/09/05 02:07:01;;;;;;;19.50;15.02;;;;;;;;;;5029940;28;20029;-76
2022/09/05 02:09:40;;;;;;;19.63;13.25;;;;;;;;;;5031158;28;20489;-75
2022/09/05 02:12:15;;;;;;;22.27;15.68;;;;;;;;;;5030715;28;20056;-76
2022/09/05 02:14:54;;;;;;;18.65;14.93;;;;;;;;;;5010009;28;20037;-76
2022/09/05 02:17:31;;;;;;;20.15;14.73;;;;;;;;;;5026698;28;20026;-76
2022/09/05 02:20:22;;;;;;;20.85;15.27;;;;;;;;;;5026775;28;20029;-75
2022/09/05 02:23:08;;;;;;;22.23;15.10;;;;;;;;;;5011550;28;20029;-74
2022/09/05 02:25:45;;;;;;;20.65;14.95;;;;;;;;;;5029822;28;20044;-74
2022/09/05 02:28:42;;;;;;;19.73;15.27;;;;;;;;;;5021112;28;20029;-75
2022/09/05 02:31:40;;;;;;;19.65;14.57;;;;;;;;;;5006446;28;20045;-75
2022/09/05 02:34:11;;;;;;;20.70;15.38;;;;;;;;;;5011204;28;20083;-74
2022/09/05 02:36:44;;;;;;;18.65;14.70;;;;;;;;;;5011408;28;20112;-77
2022/09/05 02:39:34;;;;;;;21.55;14.95;;;;;;;;;;5026454;28;20038;-74
2022/09/05 02:42:03;;;;;;;19.02;14.32;;;;;;;;;;5026731;28;20057;-74
2022/09/05 02:44:40;;;;;;;20.50;15.30;;;;;;;;;;5026532;28;20034;-74
2022/09/05 02:47:28;;;;;;;21.05;15.05;;;;;;;;;;5009306;28;20040;-75
2022/09/05 02:50:27;;;;;;;23.52;15.48;;;;;;;;;;5027279;28;20029;-76
2022/09/05 02:52:55;;;;;;;22.13;15.35;;;;;;;;;;5029687;28;20033;-73
2022/09/05 02:55:26;;;;;;;22.35;16.02;;;;;;;;;;5030140;28;20132;-76
2022/09/05 02:58:08;;;;;;;25.08;17.20;;;;;;;;;;5021369;28;20041;-75
2022/09/05 03:00:43;;;;;;;20.50;15.10;;;;;;;;;;5043138;28;20068;-75
2022/09/05 03:03:14;;;;;;;24.42;17.20;;;;;;;;;;5045774;28;20563;-76
2022/09/05 03:06:06;;;;;;;26.60;16.20;;;;;;;;;;5030996;28;20124;-76
2022/09/05 03:08:31;;;;;;;23.17;16.05;;;;;;;;;;5029511;28;20037;-74
2022/09/05 03:11:35;;;;;;;24.17;16.83;;;;;;;;;;5029970;28;20033;-75
2022/09/05 03:14:07;;;;;;;23.88;16.70;;;;;;;;;;5029462;28;20381;-74
2022/09/05 03:16:47;;;;;;;22.50;15.20;;;;;;;;;;5030552;28;20087;-74
2022/09/05 03:19:44;;;;;;;24.20;16.83;;;;;;;;;;5046074;28;20026;-76
2022/09/05 03:22:44;;;;;;;22.73;17.23;;;;;;;;;;5045450;28;20038;-75
2022/09/05 03:25:31;;;;;;;25.00;16.60;;;;;;;;;;5030379;28;20449;-75
2022/09/05 03:28:27;;;;;;;23.83;17.23;;;;;;;;;;5010339;28;20030;-74
2022/09/05 03:31:11;;;;;;;25.48;17.45;;;;;;;;;;5009808;28;20054;-76
2022/09/05 03:34:14;;;;;;;23.38;17.25;;;;;;;;;;5009812;28;20025;-75
2022/09/05 03:37:05;;;;;;;21.70;16.88;;;;;;;;;;5010283;28;20018;-74
2022/09/05 03:39:37;;;;;;;23.57;17.13;;;;;;;;;;5011103;28;20040;-74
2022/09/05 03:42:27;;;;;;;24.92;17.10;;;;;;;;;;5009471;28;20294;-76
2022/09/05 03:45:18;;;;;;;24.48;16.30;;;;;;;;;;5025308;28;20037;-75
2022/09/05 03:48:04;;;;;;;22.73;16.00;;;;;;;;;;5008676;28;20048;-76
2022/09/05 03:50:59;;;;;;;21.30;15.85;;;;;;;;;;5019154;28;20033;-74
2022/09/05 03:53:43;;;;;;;20.83;15.82;;;;;;;;;;5017808;28;20064;-74
2022/09/05 03:56:11;;;;;;;23.90;16.23;;;;;;;;;;5025766;28;20038;-75
2022/09/05 03:59:08;;;;;;;24.45;17.60;;;;;;;;;;5035227;28;20036;-75
2022/09/05 04:01:47;;;;;;;29.15;17.00;;;;;;;;;;5030141;28;20100;-75
2022/09/05 04:04:32;;;;;;;22.83;17.33;;;;;;;;;;5029097;28;20310;-76
2022/09/05 04:07:06;;;;;;;24.95;16.60;;;;;;;;;;5029269;28;20044;-74
2022/09/05 04:09:47;;;;;;;28.42;17.50;;;;;;;;;;5028610;28;20499;-75
2022/09/05 04:12:51;;;;;;;26.35;16.80;;;;;;;;;;5031129;28;20481;-75
2022/09/05 04:15:44;;;;;;;21.55;15.57;;;;;;;;;;5032608;28;20121;-77
2022/09/05 04:18:18;;;;;;;27.33;17.70;;;;;;;;;;5033892;28;20038;-75
2022/09/05 04:20:53;;;;;;;23.00;16.48;;;;;;;;;;5033191;28;20519;-76
2022/09/05 04:23:28;;;;;;;25.08;17.23;;;;;;;;;;5033555;28;20072;-75
2022/09/05 04:26:18;;;;;;;25.98;18.05;;;;;;;;;;5032144;28;20036;-77
2022/09/05 04:28:49;;;;;;;25.17;17.05;;;;;;;;;;5018056;28;20037;-76
2022/09/05 04:31:33;;;;;;;23.02;17.05;;;;;;;;;;5013047;28;20057;-75
2022/09/05 04:34:21;;;;;;;24.13;16.70;;;;;;;;;;5013833;28;20385;-75
2022/09/05 04:36:59;;;;;;;23.45;17.00;;;;;;;;;;5013312;28;20041;-75
2022/09/05 04:39:26;;;;;;;24.40;18.30;;;;;;;;;;5013360;28;20036;-75
2022/09/05 04:42:12;;;;;;;29.85;18.35;;;;;;;;;;5029641;28;20022;-76
2022/09/05 04:44:43;;;;;;;25.88;17.30;;;;;;;;;;5033474;28;20034;-76
2022/09/05 04:47:14;;;;;;;32.15;18.05;;;;;;;;;;5031634;28;20110;-76
2022/09/05 04:49:45;;;;;;;27.20;18.17;;;;;;;;;;5033021;28;20026;-75
2022/09/05 04:52:19;;;;;;;23.85;17.88;;;;;;;;;;5019913;28;20026;-73
2022/09/05 04:54:56;;;;;;;24.38;16.45;;;;;;;;;;5027847;28;20121;-76
2022/09/05 04:57:28;;;;;;;23.60;17.50;;;;;;;;;;5031157;28;20141;-74
2022/09/05 05:00:00;;;;;;;22.50;17.40;;;;;;;;;;5031790;28;20116;-74
2022/09/05 05:02:46;;;;;;;25.20;17.00;;;;;;;;;;5031138;28;20120;-75
2022/09/05 05:05:15;;;;;;;25.30;16.95;;;;;;;;;;5031684;28;20078;-74
2022/09/05 05:07:52;;;;;;;21.95;16.52;;;;;;;;;;5030936;28;20029;-74
2022/09/05 05:10:30;;;;;;;22.80;16.77;;;;;;;;;;5032252;28;20512;-75
2022/09/05 05:13:06;;;;;;;22.17;16.85;;;;;;;;;;5022886;28;20026;-75
2022/09/05 05:15:35;;;;;;;23.02;17.15;;;;;;;;;;5011821;28;20105;-75
2022/09/05 05:18:33;;;;;;;23.80;16.73;;;;;;;;;;5021455;28;20033;-74
2022/09/05 05:21:06;;;;;;;22.85;16.40;;;;;;;;;;5022383;28;20033;-75
2022/09/05 05:23:39;;;;;;;21.75;16.63;;;;;;;;;;5012165;28;20030;-74
2022/09/05 05:26:10;;;;;;;22.83;17.90;;;;;;;;;;5032225;28;20113;-76
2022/09/05 05:28:56;;;;;;;27.13;18.30;;;;;;;;;;5031745;28;20150;-77
2022/09/05 05:31:29;;;;;;;22.70;16.95;;;;;;;;;;5046523;28;20852;-75
2022/09/05 05:34:01;;;;;;;24.35;16.88;;;;;;;;;;5031990;28;20021;-77
2022/09/05 05:36:45;;;;;;;25.05;17.05;;;;;;;;;;5031312;28;20022;-78
2022/09/05 05:39:25;;;;;;;21.73;16.60;;;;;;;;;;5016762;28;20516;-78
2022/09/05 05:41:57;;;;;;;21.15;16.00;;;;;;;;;;5046074;28;20045;-76
2022/09/05 05:44:36;;;;;;;22.95;17.20;;;;;;;;;;5046312;28;20156;-76
2022/09/05 05:47:03;;;;;;;26.67;17.45;;;;;;;;;;5046462;28;20112;-76
2022/09/05 05:49:56;;;;;;;24.35;18.35;;;;;;;;;;5029881;28;20037;-75
2022/09/05 05:52:39;;;;;;;23.85;16.52;;;;;;;;;;5012605;28;20029;-77
2022/09/05 05:55:17;;;;;;;25.00;16.40;;;;;;;;;;5046905;28;20061;-74
2022/09/05 05:57:51;;;;;;;26.50;17.35;;;;;;;;;;5043685;28;20041;-75
2022/09/05 06:00:57;;;;;;;21.25;16.40;;;;;;;;;;5025029;28;20032;-75
2022/09/05 06:03:34;;;;;;;20.90;16.63;;;;;;;;;;5014617;28;20041;-75
2022/09/05 06:06:10;;;;;;;24.52;17.02;;;;;;;;;;5028975;28;20548;-76
2022/09/05 06:08:50;;;;;;;30.67;18.10;;;;;;;;;;5037663;28;20040;-75
2022/09/05 06:11:37;;;;;;;28.17;17.63;;;;;;;;;;5043438;28;20029;-75
2022/09/05 06:14:21;;;;;;;26.02;16.92;;;;;;;;;;5022256;28;20025;-75
2022/09/05 06:16:57;;;;;;;25.05;16.70;;;;;;;;;;5037880;28;20033;-74
2022/09/05 06:19:34;;;;;;;26.55;17.25;;;;;;;;;;5026803;28;20033;-75
2022/09/05 06:22:22;;;;;;;24.17;17.33;;;;;;;;;;5022325;28;20090;-74
2022/09/05 06:25:13;;;;;;;26.65;17.38;;;;;;;;;;5018928;28;20544;-77
2022/09/05 06:28:17;;;;;;;23.50;16.92;;;;;;;;;;5008498;28;20537;-75
2022/09/05 06:31:03;;;;;;;23.20;16.25;;;;;;;;;;5006054;28;20084;-76
2022/09/05 06:33:58;;;;;;;25.60;16.75;;;;;;;;;;5028685;28;20033;-76
2022/09/05 06:36:30;;;;;;;22.88;16.05;;;;;;;;;;5009785;28;20604;-75
2022/09/05 06:39:29;;;;;;;23.13;17.17;;;;;;;;;;5023436;28;20025;-76
2022/09/05 06:42:03;;;;;;;23.55;16.73;;;;;;;;;;5037360;28;20056;-75
2022/09/05 06:45:06;;;;;;;26.40;17.90;;;;;;;;;;5036842;28;20040;-75
2022/09/05 06:47:35;;;;;;;28.63;17.17;;;;;;;;;;5024300;28;20112;-75
2022/09/05 06:50:10;;;;;;;24.52;16.48;;;;;;;;;;5023276;28;20064;-76
2022/09/05 06:53:13;;;;;;;22.38;15.88;;;;;;;;;;5021861;28;20127;-75
2022/09/05 06:55:55;;;;;;;20.05;15.40;;;;;;;;;;5028268;28;20553;-77
2022/09/05 06:58:45;;;;;;;22.23;16.15;;;;;;;;;;5018074;28;20124;-74
2022/09/05 07:01:13;;;;;;;16.95;14.77;;;;;;;;;;5021375;28;20110;-75
2022/09/05 07:04:08;;;;;;;21.30;16.23;;;;;;;;;;5021528;28;20088;-78
2022/09/05 07:07:03;;;;;;;24.83;16.00;;;;;;;;;;5023684;28;20029;-75
2022/09/05 07:09:47;;;;;;;24.00;16.20;;;;;;;;;;5020594;28;20042;-75
2022/09/05 07:12:33;;;;;;;20.80;16.30;;;;;;;;;;5018250;28;20147;-76
2022/09/05 07:15:11;;;;;;;25.13;17.85;;;;;;;;;;5021312;28;20033;-76
2022/09/05 07:17:40;;;;;;;20.88;15.68;;;;;;;;;;5014875;28;20021;-74
2022/09/05 07:20:14;;;;;;;28.40;18.75;;;;;;;;;;5020540;28;20120;-75
2022/09/05 07:22:56;;;;;;;21.33;16.00;;;;;;;;;;5019447;28;20099;-77
2022/09/05 07:25:28;;;;;;;23.65;16.58;;;;;;;;;;5020578;28;21182;-75
2022/09/05 07:27:55;;;;;;;26.83;17.63;;;;;;;;;;5016248;28;20117;-75
2022/09/05 07:30:21;;;;;;;26.92;18.90;;;;;;;;;;5010253;28;20057;-76
2022/09/05 07:32:51;;;;;;;27.92;17.95;;;;;;;;;;5018173;28;20036;-76
2022/09/05 07:35:20;;;;;;;26.57;18.37;;;;;;;;;;5016074;28;20025;-75
2022/09/05 07:38:12;;;;;;;21.63;19.20;;;;;;;;;;5016651;28;20022;-75
2022/09/05 07:41:01;;;;;;;25.33;17.20;;;;;;;;;;5008784;28;20041;-75
2022/09/05 07:43:32;;;;;;;28.95;17.45;;;;;;;;;;5011441;28;20093;-74
2022/09/05 07:46:24;;;;;;;23.58;18.25;;;;;;;;;;5019733;28;20064;-76
2022/09/05 07:48:59;;;;;;;27.65;17.52;;;;;;;;;;5008798;28;20041;-78
2022/09/05 07:51:30;;;;;;;22.90;17.25;;;;;;;;;;5019509;28;20032;-75
2022/09/05 07:54:23;;;;;;;22.45;16.40;;;;;;;;;;5015716;28;20029;-75
2022/09/05 07:56:59;;;;;;;21.05;14.55;;;;;;;;;;5021755;28;20076;-75
2022/09/05 07:59:29;;;;;;;21.23;14.77;;;;;;;;;;5017273;28;20038;-74
2022/09/05 08:01:57;;;;;;;23.58;15.45;;;;;;;;;;5037751;28;20037;-76
2022/09/05 08:04:26;;;;;;;27.02;14.35;;;;;;;;;;5019313;28;20041;-75
2022/09/05 08:06:54;;;;;;;19.67;12.98;;;;;;;;;;5023791;28;20114;-74
2022/09/05 08:09:30;;;;;;;21.50;14.82;;;;;;;;;;5023050;28;20040;-74
2022/09/05 08:12:01;;;;;;;19.75;14.57;;;;;;;;;;5029083;28;20044;-75
2022/09/05 08:14:41;;;;;;;;;;;;;;;;;;5025187;28;20579;-81
2022/09/05 08:17:16;;;;;;;16.55;13.30;;;;;;;;;;5028105;28;20008;-75
2022/09/05 08:19:54;;;;;;;15.18;13.27;;;;;;;;;;5016206;28;20043;-75
2022/09/05 08:22:25;;;;;;;30.27;12.65;;;;;;;;;;5037007;28;20045;-76
2022/09/05 08:24:58;;;;;;;;;;;;;;;;;;5034024;28;20037;-74
2022/09/05 08:27:30;;;;;;;22.33;14.82;;;;;;;;;;5020545;28;19920;-76
2022/09/05 08:30:06;;;;;;;23.33;13.85;;;;;;;;;;5018465;28;20140;-74
2022/09/05 08:32:58;;;;;;;17.52;15.18;;;;;;;;;;5018259;28;20033;-75
2022/09/05 08:35:46;;;;;;;22.33;13.43;;;;;;;;;;5026118;28;20037;-76
2022/09/05 08:38:14;;;;;;;24.08;13.98;;;;;;;;;;5017255;28;20025;-75
2022/09/05 08:40:50;;;;;;;18.63;13.15;;;;;;;;;;5015850;28;20108;-75
2022/09/05 08:43:24;;;;;;;17.98;11.93;;;;;;;;;;5020663;28;20080;-76
2022/09/05 08:46:24;;;;;;;15.73;12.35;;;;;;;;;;5019881;28;20044;-76
2022/09/05 08:49:26;;;;;;;15.02;10.85;;;;;;;;;;5017740;28;20632;-77
2022/09/05 08:51:56;;;;;;;21.05;11.45;;;;;;;;;;5018702;28;20035;-75
2022/09/05 08:54:29;;;;;;;21.10;12.40;;;;;;;;;;5017640;28;20036;-75
2022/09/05 08:57:23;;;;;;;17.67;11.48;;;;;;;;;;5035626;28;20037;-78
2022/09/05 09:00:06;;;;;;;11.85;10.15;;;;;;;;;;5017208;28;20057;-73
2022/09/05 09:03:04;;;;;;;13.57;10.90;;;;;;;;;;5020605;28;20053;-75
2022/09/05 09:05:56;;;;;;;11.20;10.00;;;;;;;;;;5014118;28;20072;-78
2022/09/05 09:08:24;;;;;;;;;;;;;;;;;;5023735;28;20060;-75
2022/09/05 09:11:02;;;;;;;12.43;10.70;;;;;;;;;;5026916;28;20418;-78
2022/09/05 09:13:54;;;;;;;15.45;10.93;;;;;;;;;;5026693;28;20616;-76
2022/09/05 09:16:30;;;;;;;15.15;9.95;;;;;;;;;;5023456;28;20435;-74
2022/09/05 09:18:56;;;;;;;14.25;11.88;;;;;;;;;;5040470;28;20030;-75
2022/09/05 09:22:06;;;;;;;16.77;11.05;;;;;;;;;;5018059;28;20074;-77
2022/09/05 09:24:44;;;;;;;11.57;9.77;;;;;;;;;;5023032;28;20041;-76
2022/09/05 09:27:41;;;;;;;11.73;10.45;;;;;;;;;;5021616;28;20028;-77
2022/09/05 09:30:08;;;;;;;11.38;9.90;;;;;;;;;;5011807;28;20532;-75
2022/09/05 09:32:45;;;;;;;14.32;10.77;;;;;;;;;;5020469;28;20136;-76
2022/09/05 09:35:45;;;;;;;15.10;10.25;;;;;;;;;;5033763;28;20491;-77
2022/09/05 09:38:20;;;;;;;19.05;11.70;;;;;;;;;;5022291;28;20029;-76
2022/09/05 09:41:25;;;;;;;15.00;11.63;;;;;;;;;;5020763;28;20052;-76
2022/09/05 09:44:29;;;;;;;18.42;11.75;;;;;;;;;;5023525;28;20028;-74
2022/09/05 09:46:54;;;;;;;16.15;11.60;;;;;;;;;;5021062;28;20029;-76
2022/09/05 09:49:35;;;;;;;15.20;12.48;;;;;;;;;;5020130;28;20026;-74
2022/09/05 09:52:21;;;;;;;13.18;11.82;;;;;;;;;;5024355;28;20037;-73
2022/09/05 09:55:18;;;;;;;13.50;11.95;;;;;;;;;;5022582;28;20037;-75
2022/09/05 09:58:07;;;;;;;17.80;12.18;;;;;;;;;;5018270;28;20034;-74
2022/09/05 10:01:16;;;;;;;13.60;11.35;;;;;;;;;;5016878;28;20464;-75
2022/09/05 10:04:18;;;;;;;10.27;9.18;;;;;;;;;;4998057;28;20038;-78
2022/09/05 10:07:15;;;;;;;17.35;10.63;;;;;;;;;;5018915;28;20059;-76
2022/09/05 10:10:16;;;;;;;11.43;9.73;;;;;;;;;;5017088;28;20503;-76
2022/09/05 10:13:00;;;;;;;16.20;10.98;;;;;;;;;;5015792;28;20391;-77
2022/09/05 10:15:39;;;;;;;14.77;11.52;;;;;;;;;;5015993;28;20044;-76
2022/09/05 10:18:21;;;;;;;21.20;10.85;;;;;;;;;;5018825;28;20102;-75
2022/09/05 10:21:37;;;;;;;13.45;9.68;;;;;;;;;;5019412;28;20366;-75
2022/09/05 10:27:45;;;;;;;13.45;10.70;;;;;;;;;;1483907;26;20058;-76
2022/09/05 10:30:34;;;;;;;13.48;10.05;;;;;;;;;;4971487;28;20084;-77
2022/09/05 10:33:25;;;;;;;13.02;10.30;;;;;;;;;;4966146;28;20031;-75
2022/09/05 10:35:52;;;;;;;;;;;;;;;;;;4958578;28;20074;-77
2022/09/05 10:38:31;;;;;;;11.70;9.90;;;;;;;;;;4956602;28;19918;-78
2022/09/05 10:41:08;;;;;;;10.68;9.57;;;;;;;;;;4952706;28;20073;-74
2022/09/05 10:43:47;;;;;;;13.65;10.32;;;;;;;;;;4961877;28;20120;-75
2022/09/05 10:46:25;;;;;;;10.88;9.60;;;;;;;;;;4957953;28;20452;-73
2022/09/05 10:48:57;;;;;;;14.57;10.65;;;;;;;;;;4949576;28;20859;-75
2022/09/05 10:51:35;;;;;;;14.50;9.90;;;;;;;;;;4959201;28;20081;-73
2022/09/05 10:54:31;;;;;;;11.40;9.60;;;;;;;;;;4962445;28;20054;-73
2022/09/05 10:57:22;;;;;;;10.95;9.20;;;;;;;;;;4974285;28;20398;-75
2022/09/05 11:00:37;;;;;;;13.13;11.20;;;;;;;;;;4968928;28;20458;-75
2022/09/05 11:03:04;;;;;;;12.05;10.80;;;;;;;;;;4952916;28;20039;-73
2022/09/05 11:05:36;;;;;;;13.65;10.30;;;;;;;;;;4966760;28;20030;-73
2022/09/05 11:08:05;;;;;;;15.10;11.27;;;;;;;;;;4963667;28;20422;-74
2022/09/05 11:10:35;;;;;;;13.05;11.02;;;;;;;;;;4960473;28;20039;-74
2022/09/05 11:13:12;;;;;;;19.80;11.83;;;;;;;;;;4979480;28;20459;-74
2022/09/05 11:15:56;;;;;;;14.55;10.18;;;;;;;;;;4964003;28;20090;-73
2022/09/05 11:19:01;;;;;;;12.55;9.50;;;;;;;;;;4963289;28;20094;-72
2022/09/05 11:21:48;;;;;;;10.48;9.13;;;;;;;;;;4966650;28;20047;-74
2022/09/05 11:24:45;;;;;;;15.65;9.02;;;;;;;;;;4988393;28;20038;-74
2022/09/05 11:27:26;;;;;;;10.98;9.75;;;;;;;;;;4990852;28;20037;-73
2022/09/05 11:29:58;;;;;;;14.48;10.10;;;;;;;;;;4980405;28;20068;-72
2022/09/05 11:32:44;;;;;;;11.73;9.43;;;;;;;;;;4963953;28;20109;-74
2022/09/05 11:35:22;;;;;;;15.93;12.38;;;;;;;;;;4963677;28;20276;-76
2022/09/05 11:38:09;;;;;;;11.05;8.68;;;;;;;;;;4967357;28;20066;-77
2022/09/05 11:41:25;;;;;;;12.55;9.82;;;;;;;;;;4960145;28;20065;-74
2022/09/05 11:44:35;;;;;;;12.90;9.23;;;;;;;;;;4963039;28;20065;-75
2022/09/05 11:47:26;;;;;;;13.35;9.80;;;;;;;;;;4951175;28;20384;-74
2022/09/05 11:50:03;;;;;;;9.40;8.30;;;;;;;;;;4964656;28;20054;-77
2022/09/05 11:52:53;;;;;;;9.73;8.30;;;;;;;;;;4985249;28;20553;-76
2022/09/05 11:55:51;;;;;;;9.20;8.23;;;;;;;;;;4994009;28;20053;-78
2022/09/05 11:58:48;;;;;;;16.38;10.70;;;;;;;;;;4981028;28;20029;-77
2022/09/05 12:01:33;;;;;;;10.57;8.75;;;;;;;;;;4962820;28;20027;-77
2022/09/05 12:04:15;;;;;;;15.57;8.55;;;;;;;;;;4969816;28;20037;-75
2022/09/05 12:07:00;;;;;;;13.90;9.52;;;;;;;;;;4979357;28;20348;-74
2022/09/05 12:09:36;;;;;;;8.77;7.75;;;;;;;;;;4968659;28;20145;-78
2022/09/05 12:12:45;;;;;;;12.02;8.38;;;;;;;;;;4967583;28;20062;-79
2022/09/05 12:15:25;;;;;;;10.75;7.05;;;;;;;;;;4957852;28;20163;-74
2022/09/05 12:18:21;;;;;;;10.38;7.68;;;;;;;;;;4963538;28;20054;-76
2022/09/05 12:20:52;;;;;;;9.30;7.88;;;;;;;;;;4956984;28;20109;-77
2022/09/05 12:23:42;;;;;;;9.93;7.75;;;;;;;;;;4958096;28;20060;-72
2022/09/05 12:26:14;;;;;;;11.65;7.10;;;;;;;;;;4967167;28;20349;-75
2022/09/05 12:28:56;;;;;;;8.73;7.82;;;;;;;;;;4965233;28;20050;-74
2022/09/05 12:31:40;;;;;;;17.40;8.18;;;;;;;;;;4957881;28;20576;-75
2022/09/05 12:34:36;;;;;;;7.20;6.50;;;;;;;;;;4969143;28;20045;-74
2022/09/05 12:37:03;;;;;;;9.80;6.50;;;;;;;;;;4985423;28;20045;-76
2022/09/05 12:39:54;;;;;;;12.50;7.30;;;;;;;;;;4982070;28;20467;-73
2022/09/05 12:42:52;;;;;;;14.77;7.47;;;;;;;;;;4967332;28;20053;-76
2022/09/05 12:45:26;;;;;;;6.97;6.32;;;;;;;;;;4968292;28;20038;-76
2022/09/05 12:48:09;;;;;;;10.85;7.18;;;;;;;;;;4986240;28;20054;-76
2022/09/05 12:51:06;;;;;;;10.57;7.75;;;;;;;;;;4981549;28;20034;-75
2022/09/05 12:54:12;;;;;;;10.32;6.68;;;;;;;;;;4968897;28;20031;-75
2022/09/05 12:57:28;;;;;;;8.82;7.00;;;;;;;;;;4944551;28;20073;-76
2022/09/05 13:00:09;;;;;;;14.55;7.75;;;;;;;;;;4964801;28;20093;-74
2022/09/05 13:02:36;;;;;;;;;;;;;;;;;;4967658;28;20373;-78
2022/09/05 13:05:27;;;;;;;12.13;7.15;;;;;;;;;;4965959;28;19922;-73
2022/09/05 13:07:57;;;;;;;12.38;7.28;;;;;;;;;;4964692;28;20034;-75
2022/09/05 13:10:40;;;;;;;10.97;7.67;;;;;;;;;;4980258;28;20022;-75
2022/09/05 13:13:45;;;;;;;11.02;8.52;;;;;;;;;;4967736;28;20283;-75
2022/09/05 13:16:19;;;;;;;9.70;7.28;;;;;;;;;;4958717;28;20112;-73
2022/09/05 13:18:47;;;;;;;8.32;6.65;;;;;;;;;;4972949;28;20046;-76
2022/09/05 13:21:28;;;;;;;9.88;7.03;;;;;;;;;;4957919;28;20045;-74
2022/09/05 13:24:17;;;;;;;13.23;6.25;;;;;;;;;;4975511;28;20182;-75
2022/09/05 13:26:56;;;;;;;6.35;5.75;;;;;;;;;;4961748;28;20550;-75
2022/09/05 13:29:52;;;;;;;8.88;7.50;;;;;;;;;;4959658;28;20763;-75
2022/09/05 13:32:43;;;;;;;8.10;6.55;;;;;;;;;;4957274;28;20031;-75
2022/09/05 13:35:35;;;;;;;6.25;5.60;;;;;;;;;;4959017;28;20042;-75
2022/09/05 13:38:19;;;;;;;7.47;5.93;;;;;;;;;;4943669;28;20145;-75
2022/09/05 13:40:50;;;;;;;8.77;7.10;;;;;;;;;;4955344;28;20060;-77
2022/09/05 13:43:37;;;;;;;11.30;5.15;;;;;;;;;;4960491;28;20038;-76
2022/09/05 13:46:23;;;;;;;6.88;5.40;;;;;;;;;;4984866;28;20293;-76
2022/09/05 13:49:05;;;;;;;5.03;4.57;;;;;;;;;;4978868;28;20066;-75
2022/09/05 13:51:42;;;;;;;5.55;4.07;;;;;;;;;;4982510;28;20061;-75
2022/09/05 13:54:35;;;;;;;4.93;4.22;;;;;;;;;;4970548;28;20027;-76
2022/09/05 13:57:30;;;;;;;5.55;4.80;;;;;;;;;;4962450;28;20046;-72
2022/09/05 14:00:17;;;;;;;4.72;4.22;;;;;;;;;;4962961;28;20045;-73
2022/09/05 14:03:31;;;;;;;7.55;5.50;;;;;;;;;;4961239;28;20501;-72
2022/09/05 14:06:26;;;;;;;4.45;4.00;;;;;;;;;;4908027;29;20047;-73
2022/09/05 14:09:21;;;;;;;4.63;4.18;;;;;;;;;;4922561;28;20078;-73
2022/09/05 14:11:58;;;;;;;5.30;3.88;;;;;;;;;;4952285;28;20027;-71
2022/09/05 14:14:39;;;;;;;7.57;4.05;;;;;;;;;;4956840;28;20031;-72
2022/09/05 14:17:20;;;;;;;5.95;4.65;;;;;;;;;;4956572;28;20046;-73
2022/09/05 14:22:55;;;;;;;7.32;4.13;;;;;;;;;;4953395;28;21343;-74
2022/09/05 14:25:32;;;;;;;11.38;3.90;;;;;;;;;;4956300;28;20126;-74
2022/09/05 14:28:01;;;;;;;5.55;4.95;;;;;;;;;;4962920;28;20090;-75
2022/09/05 14:30:38;;;;;;;4.40;3.25;;;;;;;;;;4957560;28;20031;-74
2022/09/05 14:33:11;;;;;;;6.32;5.45;;;;;;;;;;4964552;28;20026;-73
2022/09/05 14:35:56;;;;;;;4.90;4.00;;;;;;;;;;4946245;28;20111;-73
2022/09/05 14:39:08;;;;;;;4.63;2.92;;;;;;;;;;4956015;28;20081;-73
2022/09/05 14:41:52;;;;;;;6.15;2.90;;;;;;;;;;4960325;28;20061;-74
2022/09/05 14:44:27;;;;;;;5.07;2.90;;;;;;;;;;4956200;28;20042;-73
2022/09/05 14:47:31;;;;;;;5.70;3.40;;;;;;;;;;4976858;28;20030;-73
2022/09/05 14:50:15;;;;;;;3.75;3.25;;;;;;;;;;4932210;28;20088;-73
2022/09/05 14:52:59;;;;;;;7.70;3.17;;;;;;;;;;4960348;28;20027;-74
2022/09/05 14:55:25;;;;;;;4.40;3.65;;;;;;;;;;4960862;28;20464;-72
2022/09/05 14:57:51;;;;;;;6.65;2.58;;;;;;;;;;4982075;28;20304;-76
2022/09/05 15:00:19;;;;;;;5.13;3.00;;;;;;;;;;4960927;28;20058;-73
2022/09/05 15:02:52;;;;;;;7.03;3.08;;;;;;;;;;4955440;28;20039;-74
2022/09/05 15:05:30;;;;;;;5.07;3.30;;;;;;;;;;4956547;28;20863;-75
2022/09/05 15:08:09;;;;;;;4.75;3.28;;;;;;;;;;4962205;28;20031;-74
2022/09/05 15:10:45;;;;;;;9.50;5.68;;;;;;;;;;4962097;28;20178;-73
2022/09/05 15:13:10;;;;;;;4.28;3.88;;;;;;;;;;4959621;28;20178;-75
2022/09/05 15:15:39;;;;;;;7.40;3.95;;;;;;;;;;4956116;28;20952;-74
2022/09/05 15:18:17;;;;;;;10.43;5.90;;;;;;;;;;4955940;28;20035;-75
2022/09/05 15:20:53;;;;;;;7.10;4.50;;;;;;;;;;4956089;28;20038;-79
2022/09/05 15:23:18;;;;;;;7.28;4.28;;;;;;;;;;4957000;28;20026;-78
2022/09/05 15:25:59;;;;;;;6.10;4.28;;;;;;;;;;4977299;28;20109;-77
2022/09/05 15:28:40;;;;;;;8.55;7.25;;;;;;;;;;4964758;28;20101;-75
2022/09/05 15:31:23;;;;;;;8.02;4.13;;;;;;;;;;4963498;28;20558;-75
2022/09/05 15:33:53;;;;;;;5.35;3.97;;;;;;;;;;4962746;28;20035;-76
2022/09/05 15:36:35;;;;;;;7.43;5.78;;;;;;;;;;4966059;28;20038;-74
2022/09/05 15:39:19;;;;;;;9.43;7.03;;;;;;;;;;4964026;28;20031;-76
2022/09/05 15:41:49;;;;;;;5.60;3.92;;;;;;;;;;4982249;28;20404;-77
2022/09/05 15:44:23;;;;;;;6.07;4.00;;;;;;;;;;4965160;28;20391;-77
2022/09/05 15:46:52;;;;;;;4.25;3.80;;;;;;;;;;4967638;28;20097;-77
2022/09/05 15:49:26;;;;;;;4.90;4.32;;;;;;;;;;4983193;28;20126;-76
2022/09/05 15:51:56;;;;;;;7.70;5.55;;;;;;;;;;4964137;28;20027;-77
2022/09/05 15:54:30;;;;;;;5.28;4.07;;;;;;;;;;4952970;28;20110;-76
2022/09/05 15:56:59;;;;;;;6.55;5.72;;;;;;;;;;4983940;28;20038;-76
2022/09/05 15:59:30;;;;;;;8.05;4.85;;;;;;;;;;4984066;28;20022;-77
2022/09/05 16:01:56;;;;;;;6.25;4.72;;;;;;;;;;4984718;28;20041;-78